Terminal Aerodrome Forecast
Issued by NWS

Current Version | Previous Version | Graphics & Text | Print | Product List | Glossary On
Versions: 1 2 3 4 5 6 7 8 9 10 11 12 13 14
000
FTUS41 KRNK 151740
TAFLWB
TAF
KLWB 151740Z 1518/1618 30011G19KT P6SM -SHRA OVC022
      TEMPO 1518/1519 SCT022 OVC040
     FM152100 32015G25KT P6SM -SHSN OVC025
     FM160100 32012G25KT P6SM OVC035
     FM160400 34007KT P6SM SCT035=

USA.gov is the U.S. government's official web portal to all federal, state and local government web resources and services.